createdAt,value
2018-01-28T00:00:47.962Z,6.0
2018-01-28T00:01:50.061Z,6.0
2018-01-28T00:02:51.663Z,6.0
2018-01-28T00:03:53.269Z,6.1
2018-01-28T00:04:55.735Z,6.0
2018-01-28T00:05:57.535Z,5.9
2018-01-28T00:06:59.448Z,5.9
2018-01-28T00:08:01.265Z,5.9
2018-01-28T00:09:02.868Z,6.0
2018-01-28T00:10:04.610Z,6.0
2018-01-28T00:11:06.246Z,5.9
2018-01-28T00:12:07.850Z,6.0
2018-01-28T00:13:09.456Z,6.0
2018-01-28T00:14:11.269Z,6.0
2018-01-28T00:15:13.057Z,6.0
2018-01-28T00:16:14.663Z,6.0
2018-01-28T00:17:16.270Z,6.0
2018-01-28T00:18:17.873Z,6.0
2018-01-28T00:19:19.583Z,6.1
2018-01-28T00:20:21.515Z,6.0
2018-01-28T00:21:23.124Z,6.0
2018-01-28T00:22:24.730Z,6.0
2018-01-28T00:23:26.334Z,6.0
2018-01-28T00:24:27.942Z,6.0
2018-01-28T00:25:29.547Z,6.0
2018-01-28T00:26:31.197Z,6.1
2018-01-28T00:27:32.772Z,6.0
2018-01-28T00:28:34.376Z,6.0
2018-01-28T00:29:35.987Z,6.0
2018-01-28T00:30:37.591Z,6.0
2018-01-28T00:31:39.198Z,6.0
2018-01-28T00:32:40.802Z,6.0
2018-01-28T00:33:42.411Z,6.0
2018-01-28T00:34:44.016Z,6.1
2018-01-28T00:35:45.631Z,6.1
2018-01-28T00:36:47.229Z,6.1
2018-01-28T00:37:48.841Z,6.1
2018-01-28T00:38:50.442Z,6.1
2018-01-28T00:39:52.051Z,6.1
2018-01-28T00:40:53.651Z,6.1
2018-01-28T00:41:55.255Z,6.1
2018-01-28T00:42:56.865Z,6.2
2018-01-28T00:43:58.468Z,6.1
2018-01-28T00:45:00.082Z,6.0
2018-01-28T00:46:01.683Z,6.0
2018-01-28T00:47:03.291Z,6.0
2018-01-28T00:48:04.895Z,6.0
2018-01-28T00:49:06.507Z,6.0
2018-01-28T00:50:08.109Z,6.0
2018-01-28T00:51:09.717Z,6.0
2018-01-28T00:52:11.323Z,6.0
2018-01-28T00:53:12.930Z,5.9
2018-01-28T00:54:14.534Z,6.0
2018-01-28T00:55:16.142Z,6.0
2018-01-28T00:56:17.746Z,6.0
2018-01-28T00:57:19.353Z,6.0
2018-01-28T00:58:20.955Z,6.0
2018-01-28T00:59:22.564Z,6.0
2018-01-28T01:00:24.164Z,6.0
2018-01-28T01:01:25.772Z,6.0
2018-01-28T01:02:27.374Z,6.0
2018-01-28T01:03:28.985Z,5.9
2018-01-28T01:04:30.588Z,6.1
2018-01-28T01:05:32.204Z,6.0
2018-01-28T01:06:33.807Z,6.0
2018-01-28T01:07:35.411Z,6.0
2018-01-28T01:08:37.014Z,6.0
2018-01-28T01:09:38.622Z,6.0
2018-01-28T01:10:40.231Z,6.0
2018-01-28T01:11:41.838Z,6.0
2018-01-28T01:12:43.434Z,6.0
2018-01-28T01:13:45.047Z,6.0
2018-01-28T01:14:46.651Z,5.9
2018-01-28T01:15:48.252Z,6.0
2018-01-28T01:16:49.856Z,6.0
2018-01-28T01:17:51.466Z,5.9
2018-01-28T01:18:53.076Z,6.0
2018-01-28T01:19:54.679Z,6.0
2018-01-28T01:20:56.287Z,6.1
2018-01-28T01:21:57.893Z,6.0
2018-01-28T01:22:59.501Z,6.1
2018-01-28T01:24:01.102Z,6.1
2018-01-28T01:25:02.709Z,6.0
2018-01-28T01:26:04.318Z,6.1
2018-01-28T01:27:05.928Z,6.1
2018-01-28T01:28:07.533Z,6.1
2018-01-28T01:29:09.135Z,6.0
2018-01-28T01:30:10.743Z,6.1
2018-01-28T01:31:12.350Z,6.0
2018-01-28T01:32:13.950Z,6.1
2018-01-28T01:33:15.555Z,6.1
2018-01-28T01:34:17.166Z,6.1
2018-01-28T01:35:18.773Z,6.1
2018-01-28T01:36:20.380Z,6.1
2018-01-28T01:37:21.978Z,6.1
2018-01-28T01:38:23.586Z,6.2
2018-01-28T01:39:25.196Z,6.1
2018-01-28T01:40:26.799Z,6.1
2018-01-28T01:41:28.407Z,6.2
2018-01-28T01:42:30.011Z,6.1
2018-01-28T01:43:31.617Z,6.2
2018-01-28T01:44:33.217Z,6.3
2018-01-28T01:45:34.826Z,6.2
2018-01-28T01:46:36.427Z,6.3
2018-01-28T01:47:38.039Z,6.2
2018-01-28T01:48:39.645Z,6.2
2018-01-28T01:49:41.254Z,6.3
2018-01-28T01:50:42.853Z,6.2
2018-01-28T01:51:44.506Z,6.3
2018-01-28T01:52:46.066Z,6.4
2018-01-28T01:53:47.677Z,6.3
2018-01-28T01:54:49.279Z,6.4
2018-01-28T01:55:50.886Z,6.3
2018-01-28T01:56:52.496Z,6.3
2018-01-28T01:57:54.103Z,6.4
2018-01-28T01:58:55.708Z,6.4
2018-01-28T01:59:57.314Z,6.4
2018-01-28T02:00:58.922Z,6.3
2018-01-28T02:02:00.521Z,6.3
2018-01-28T02:03:02.131Z,6.3
2018-01-28T02:04:03.789Z,6.4
2018-01-28T02:05:05.338Z,6.2
2018-01-28T02:06:06.956Z,6.4
2018-01-28T02:07:08.562Z,6.3
2018-01-28T02:08:10.170Z,6.2
2018-01-28T02:09:11.773Z,6.4
2018-01-28T02:10:13.382Z,6.4
2018-01-28T02:11:14.988Z,6.4
2018-01-28T02:12:16.587Z,6.2
2018-01-28T02:13:18.197Z,6.4
2018-01-28T02:14:19.798Z,6.4
2018-01-28T02:15:21.406Z,6.3
2018-01-28T02:16:23.015Z,6.3
2018-01-28T02:17:24.626Z,6.3
2018-01-28T02:18:26.235Z,6.3
2018-01-28T02:19:27.835Z,6.2
2018-01-28T02:20:29.440Z,6.2
2018-01-28T02:21:31.048Z,6.3
2018-01-28T02:22:32.655Z,6.2
2018-01-28T02:23:34.259Z,6.4
2018-01-28T02:24:35.865Z,6.4
2018-01-28T02:25:37.477Z,6.4
2018-01-28T02:26:39.081Z,6.2
2018-01-28T02:27:40.681Z,6.3
2018-01-28T02:28:42.292Z,6.4
2018-01-28T02:29:43.893Z,6.4
2018-01-28T02:30:45.499Z,6.3
2018-01-28T02:31:47.109Z,6.4
2018-01-28T02:32:48.718Z,6.3
2018-01-28T02:33:50.323Z,6.3
2018-01-28T02:34:51.924Z,6.4
2018-01-28T02:35:53.528Z,6.4
2018-01-28T02:36:55.135Z,6.4
2018-01-28T02:37:56.740Z,6.5
2018-01-28T02:38:58.344Z,6.4
2018-01-28T02:39:59.951Z,6.5
2018-01-28T02:41:01.552Z,6.4
2018-01-28T02:42:03.162Z,6.4
2018-01-28T02:43:04.763Z,6.5
2018-01-28T02:44:06.375Z,6.4
2018-01-28T02:45:07.976Z,6.5
2018-01-28T02:46:09.590Z,6.5
2018-01-28T02:47:11.197Z,6.5
2018-01-28T02:48:12.801Z,6.5
2018-01-28T02:49:14.403Z,6.5
2018-01-28T02:50:16.012Z,6.5
2018-01-28T02:51:17.621Z,6.5
2018-01-28T02:52:19.223Z,6.5
2018-01-28T02:53:20.831Z,6.5
2018-01-28T02:54:22.437Z,6.6
2018-01-28T02:55:24.041Z,6.5
2018-01-28T02:56:25.642Z,6.5
2018-01-28T02:57:27.253Z,6.6
2018-01-28T02:58:28.853Z,6.6
2018-01-28T02:59:30.466Z,6.6
2018-01-28T03:00:32.070Z,6.6
2018-01-28T03:01:33.681Z,6.6
2018-01-28T03:02:35.281Z,6.6
2018-01-28T03:03:36.890Z,6.6
2018-01-28T03:04:38.494Z,6.6
2018-01-28T03:05:40.104Z,6.6
2018-01-28T03:06:41.707Z,6.6
2018-01-28T03:07:43.317Z,6.6
2018-01-28T03:08:44.922Z,6.6
2018-01-28T03:09:46.529Z,6.6
2018-01-28T03:10:48.129Z,6.7
2018-01-28T03:11:49.737Z,6.6
2018-01-28T03:12:51.338Z,6.7
2018-01-28T03:13:52.949Z,6.7
2018-01-28T03:14:54.554Z,6.6
2018-01-28T03:15:56.164Z,6.6
2018-01-28T03:16:57.766Z,6.7
2018-01-28T03:17:59.370Z,6.6
2018-01-28T03:19:00.980Z,6.6
2018-01-28T03:20:02.583Z,6.8
2018-01-28T03:21:04.191Z,6.7
2018-01-28T03:22:05.799Z,6.7
2018-01-28T03:23:07.406Z,6.7
2018-01-28T03:24:09.008Z,6.7
2018-01-28T03:25:10.615Z,6.7
2018-01-28T03:26:12.218Z,6.8
2018-01-28T03:27:13.826Z,6.7
2018-01-28T03:28:15.430Z,6.8
2018-01-28T03:29:17.043Z,6.7
2018-01-28T03:30:18.644Z,6.7
2018-01-28T03:31:20.253Z,6.8
2018-01-28T03:32:21.854Z,6.8
2018-01-28T03:33:23.463Z,6.7
2018-01-28T03:34:25.078Z,6.8
2018-01-28T03:35:26.678Z,6.7
2018-01-28T03:36:28.285Z,6.8
2018-01-28T03:37:29.897Z,6.9
2018-01-28T03:38:31.504Z,6.8
2018-01-28T03:39:33.104Z,6.9
2018-01-28T03:40:34.708Z,6.8
2018-01-28T03:41:36.315Z,6.8
2018-01-28T03:42:37.927Z,6.8
2018-01-28T03:43:39.531Z,6.9
2018-01-28T03:44:41.137Z,6.9
2018-01-28T03:45:42.744Z,7.0
2018-01-28T03:46:44.351Z,7.0
2018-01-28T03:47:45.953Z,6.9
2018-01-28T03:48:47.559Z,6.9
2018-01-28T03:49:49.171Z,6.9
2018-01-28T03:50:50.774Z,6.9
2018-01-28T03:51:52.386Z,7.0
2018-01-28T03:52:54.051Z,7.0
2018-01-28T03:53:55.593Z,7.0
2018-01-28T03:54:57.198Z,7.0
2018-01-28T03:55:58.814Z,7.0
2018-01-28T03:57:00.422Z,6.9
2018-01-28T03:58:02.027Z,6.8
2018-01-28T03:59:03.634Z,6.8
2018-01-28T04:00:05.243Z,6.8
2018-01-28T04:01:06.852Z,6.8
2018-01-28T04:02:08.453Z,7.0
2018-01-28T04:03:10.058Z,7.0
2018-01-28T04:04:11.668Z,7.0
2018-01-28T04:05:13.276Z,6.9
2018-01-28T04:06:14.880Z,7.0
2018-01-28T04:07:16.486Z,7.0
2018-01-28T04:08:18.087Z,7.0
2018-01-28T04:09:19.692Z,7.0
2018-01-28T04:10:21.302Z,7.0
2018-01-28T04:11:22.909Z,7.0
2018-01-28T04:12:24.515Z,7.0
2018-01-28T04:13:26.123Z,6.9
2018-01-28T04:14:27.731Z,6.9
2018-01-28T04:15:29.340Z,7.0
2018-01-28T04:16:30.947Z,6.9
2018-01-28T04:17:32.555Z,7.0
2018-01-28T04:18:34.159Z,7.1
2018-01-28T04:19:35.766Z,7.0
2018-01-28T04:20:37.377Z,7.0
2018-01-28T04:21:38.985Z,7.0
2018-01-28T04:22:40.582Z,7.0
2018-01-28T04:23:42.187Z,7.0
2018-01-28T04:24:43.796Z,7.0
2018-01-28T04:25:45.404Z,7.0
2018-01-28T04:26:47.010Z,7.0
2018-01-28T04:27:48.613Z,7.0
2018-01-28T04:28:50.223Z,7.1
2018-01-28T04:29:51.830Z,7.0
2018-01-28T04:30:53.433Z,7.1
2018-01-28T04:31:55.040Z,7.1
2018-01-28T04:32:56.643Z,7.1
2018-01-28T04:33:58.253Z,7.0
2018-01-28T04:34:59.860Z,7.1
2018-01-28T04:36:01.464Z,7.1
2018-01-28T04:37:03.069Z,7.1
2018-01-28T04:38:04.677Z,7.1
2018-01-28T04:39:06.285Z,7.1
2018-01-28T04:40:07.889Z,7.1
2018-01-28T04:41:09.498Z,7.1
2018-01-28T04:42:11.104Z,7.0
2018-01-28T04:43:12.710Z,7.1
2018-01-28T04:44:14.314Z,7.1
2018-01-28T04:45:15.927Z,7.1
2018-01-28T04:46:17.529Z,7.2
2018-01-28T04:47:19.138Z,7.2
2018-01-28T04:48:20.745Z,7.2
2018-01-28T04:49:22.353Z,7.2
2018-01-28T04:50:23.962Z,7.1
2018-01-28T04:51:25.566Z,7.1
2018-01-28T04:52:27.174Z,7.1
2018-01-28T04:53:28.775Z,7.1
2018-01-28T04:54:30.381Z,7.1
2018-01-28T04:55:31.987Z,7.2
2018-01-28T04:56:33.599Z,7.1
2018-01-28T04:57:35.202Z,7.2
2018-01-28T04:58:36.809Z,7.2
2018-01-28T04:59:38.412Z,7.1
2018-01-28T05:00:40.026Z,7.2
2018-01-28T05:01:41.629Z,7.2
2018-01-28T05:02:43.242Z,7.2
2018-01-28T05:03:44.848Z,7.3
2018-01-28T05:04:46.455Z,7.2
2018-01-28T05:05:48.063Z,7.2
2018-01-28T05:06:49.666Z,7.2
2018-01-28T05:07:51.283Z,7.2
2018-01-28T05:08:52.883Z,7.2
2018-01-28T05:09:54.496Z,7.2
2018-01-28T05:10:56.103Z,7.3
2018-01-28T05:11:57.713Z,7.4
2018-01-28T05:12:59.320Z,7.3
2018-01-28T05:14:00.925Z,7.3
2018-01-28T05:15:02.539Z,7.3
2018-01-28T05:16:04.143Z,7.2
2018-01-28T05:17:05.755Z,7.2
2018-01-28T05:18:07.361Z,7.3
2018-01-28T05:19:08.968Z,7.3
2018-01-28T05:20:10.571Z,7.3
2018-01-28T05:21:12.178Z,7.4
2018-01-28T05:22:13.787Z,7.3
2018-01-28T05:23:15.393Z,7.4
2018-01-28T05:24:17.001Z,7.4
2018-01-28T05:25:18.606Z,7.3
2018-01-28T05:26:20.212Z,7.4
2018-01-28T05:27:21.815Z,7.4
2018-01-28T05:28:23.418Z,7.5
2018-01-28T05:29:25.030Z,7.5
2018-01-28T05:30:26.634Z,7.5
2018-01-28T05:31:28.247Z,7.5
2018-01-28T05:32:29.854Z,7.5
2018-01-28T05:33:31.464Z,7.5
2018-01-28T05:34:33.066Z,7.4
2018-01-28T05:35:34.672Z,7.6
2018-01-28T05:36:36.284Z,7.6
2018-01-28T05:37:37.889Z,7.6
2018-01-28T05:38:39.497Z,7.6
2018-01-28T05:39:41.103Z,7.6
2018-01-28T05:40:42.713Z,7.6
2018-01-28T05:41:44.317Z,7.6
2018-01-28T05:42:45.920Z,7.7
2018-01-28T05:43:47.530Z,7.5
2018-01-28T05:44:49.137Z,7.5
2018-01-28T05:45:50.746Z,7.6
2018-01-28T05:46:52.351Z,7.6
2018-01-28T05:47:53.954Z,7.5
2018-01-28T05:48:55.565Z,7.5
2018-01-28T05:49:57.170Z,7.6
2018-01-28T05:50:58.779Z,7.6
2018-01-28T05:52:00.382Z,7.6
2018-01-28T05:53:01.995Z,7.6
2018-01-28T05:54:03.601Z,7.6
2018-01-28T05:55:05.209Z,7.5
2018-01-28T05:56:06.817Z,7.6
2018-01-28T05:57:08.423Z,7.6
2018-01-28T05:58:10.028Z,7.6
2018-01-28T05:59:11.632Z,7.6
2018-01-28T06:00:13.244Z,7.6
2018-01-28T06:01:14.848Z,7.5
2018-01-28T06:02:16.451Z,7.5
2018-01-28T06:03:18.060Z,7.4
2018-01-28T06:04:19.663Z,7.5
2018-01-28T06:05:21.275Z,7.4
2018-01-28T06:06:22.879Z,7.5
2018-01-28T06:07:24.489Z,7.6
2018-01-28T06:08:26.095Z,7.6
2018-01-28T06:09:27.703Z,7.5
2018-01-28T06:10:29.313Z,7.6
2018-01-28T06:11:30.917Z,7.5
2018-01-28T06:12:32.519Z,7.6
2018-01-28T06:13:34.128Z,7.6
2018-01-28T06:14:35.737Z,7.6
2018-01-28T06:15:37.344Z,7.5
2018-01-28T06:16:38.949Z,7.6
2018-01-28T06:17:40.557Z,7.6
2018-01-28T06:18:42.161Z,7.5
2018-01-28T06:19:43.771Z,7.5
2018-01-28T06:20:45.378Z,7.6
2018-01-28T06:21:46.986Z,7.6
2018-01-28T06:22:48.593Z,7.7
2018-01-28T06:23:50.201Z,7.6
2018-01-28T06:24:51.808Z,7.5
2018-01-28T06:25:53.412Z,7.6
2018-01-28T06:26:55.018Z,7.6
2018-01-28T06:27:56.628Z,7.7
2018-01-28T06:28:58.238Z,7.5
2018-01-28T06:29:59.843Z,7.7
2018-01-28T06:31:01.449Z,7.7
2018-01-28T06:32:03.057Z,7.7
2018-01-28T06:33:04.664Z,7.7
2018-01-28T06:34:06.267Z,7.7
2018-01-28T06:35:07.876Z,7.7
2018-01-28T06:36:09.480Z,7.7
2018-01-28T06:37:11.086Z,7.7
2018-01-28T06:38:12.693Z,7.7
2018-01-28T06:39:14.304Z,7.7
2018-01-28T06:40:15.905Z,7.7
2018-01-28T06:41:17.511Z,7.7
2018-01-28T06:42:19.124Z,7.7
2018-01-28T06:43:20.734Z,7.7
2018-01-28T06:44:22.339Z,7.8
2018-01-28T06:45:23.940Z,7.8
2018-01-28T06:46:25.551Z,7.8
2018-01-28T06:47:27.158Z,7.8
2018-01-28T06:48:28.762Z,7.8
2018-01-28T06:49:30.368Z,7.7
2018-01-28T06:50:31.979Z,7.8
2018-01-28T06:51:33.584Z,7.8
2018-01-28T06:52:35.196Z,7.7
2018-01-28T06:53:36.798Z,7.8
2018-01-28T06:54:38.411Z,7.7
2018-01-28T06:55:40.014Z,7.8
2018-01-28T06:56:41.630Z,7.7
2018-01-28T06:57:43.232Z,7.9
2018-01-28T06:58:44.844Z,7.9
2018-01-28T06:59:46.446Z,7.9
2018-01-28T07:00:48.059Z,7.8
2018-01-28T07:01:49.663Z,7.8
2018-01-28T07:02:51.834Z,7.9
2018-01-28T07:03:53.436Z,7.9
2018-01-28T07:04:55.050Z,7.8
2018-01-28T07:05:56.658Z,7.9
2018-01-28T07:06:58.268Z,7.9
2018-01-28T07:07:59.877Z,7.9
2018-01-28T07:09:01.482Z,7.9
2018-01-28T07:10:03.095Z,8.0
2018-01-28T07:11:04.700Z,8.0
2018-01-28T07:12:06.314Z,8.0
2018-01-28T07:13:07.920Z,8.0
2018-01-28T07:14:09.528Z,8.0
2018-01-28T07:15:11.133Z,8.0
2018-01-28T07:16:12.743Z,8.0
2018-01-28T07:17:14.350Z,8.0
2018-01-28T07:18:15.961Z,8.0
2018-01-28T07:19:17.565Z,8.0
2018-01-28T07:20:19.178Z,8.0
2018-01-28T07:21:20.783Z,8.0
2018-01-28T07:22:22.392Z,8.0
2018-01-28T07:23:26.931Z,8.1
2018-01-28T07:24:28.559Z,8.1
2018-01-28T07:25:30.198Z,8.1
2018-01-28T07:26:31.781Z,8.1
2018-01-28T07:27:33.386Z,8.1
2018-01-28T07:28:34.998Z,8.1
2018-01-28T07:29:36.603Z,8.1
2018-01-28T07:30:38.214Z,8.1
2018-01-28T07:31:39.821Z,8.2
2018-01-28T07:32:41.429Z,8.2
2018-01-28T07:33:43.042Z,8.1
2018-01-28T07:34:44.658Z,8.1
2018-01-28T07:35:46.261Z,8.1
2018-01-28T07:36:47.871Z,8.2
2018-01-28T07:37:49.482Z,8.2
2018-01-28T07:38:51.094Z,8.1
2018-01-28T07:39:52.698Z,8.1
2018-01-28T07:40:54.311Z,8.2
2018-01-28T07:41:55.926Z,8.2
2018-01-28T07:42:57.536Z,8.1
2018-01-28T07:43:59.145Z,8.1
2018-01-28T07:45:00.760Z,8.2
2018-01-28T07:46:02.378Z,8.1
2018-01-28T07:47:03.989Z,8.2
2018-01-28T07:48:05.614Z,8.2
2018-01-28T07:49:07.221Z,8.1
2018-01-28T07:50:08.818Z,8.1
2018-01-28T07:51:10.426Z,8.4
2018-01-28T07:52:12.042Z,8.4
2018-01-28T07:53:13.657Z,8.4
2018-01-28T07:54:15.265Z,8.4
2018-01-28T07:55:16.907Z,8.3
2018-01-28T07:56:19.313Z,8.3
2018-01-28T07:57:20.919Z,8.4
2018-01-28T07:58:22.649Z,8.3
2018-01-28T07:59:25.093Z,8.3
2018-01-28T08:00:26.782Z,8.3
2018-01-28T08:01:28.412Z,8.3
2018-01-28T08:02:30.023Z,8.3
2018-01-28T08:03:34.097Z,8.3
2018-01-28T08:04:34.987Z,8.4
2018-01-28T08:05:36.600Z,8.3
2018-01-28T08:06:38.215Z,8.4
2018-01-28T08:07:40.520Z,8.4
2018-01-28T08:08:44.617Z,8.4
2018-01-28T08:09:46.195Z,8.4
2018-01-28T08:10:47.807Z,8.4
2018-01-28T08:11:49.420Z,8.4
2018-01-28T08:12:51.047Z,8.4
2018-01-28T08:13:52.660Z,8.4
2018-01-28T08:14:54.271Z,8.5
2018-01-28T08:15:55.879Z,8.5
2018-01-28T08:16:57.497Z,8.4
2018-01-28T08:17:59.107Z,8.5
2018-01-28T08:19:00.722Z,8.5
2018-01-28T08:20:02.329Z,8.5
2018-01-28T08:21:03.942Z,8.4
2018-01-28T08:22:05.553Z,8.5
2018-01-28T08:23:07.162Z,8.4
2018-01-28T08:24:08.788Z,8.5
2018-01-28T08:25:10.412Z,8.5
2018-01-28T08:26:12.022Z,8.5
2018-01-28T08:27:13.632Z,8.5
2018-01-28T08:28:15.245Z,8.5
2018-01-28T08:29:16.852Z,8.6
2018-01-28T08:30:18.467Z,8.6
2018-01-28T08:31:20.077Z,8.6
2018-01-28T08:32:21.689Z,8.6
2018-01-28T08:33:23.304Z,8.6
2018-01-28T08:34:24.917Z,8.6
2018-01-28T08:35:26.530Z,8.6
2018-01-28T08:36:28.135Z,8.6
2018-01-28T08:37:29.748Z,8.7
2018-01-28T08:38:31.357Z,8.7
2018-01-28T08:39:32.974Z,8.6
2018-01-28T08:40:34.583Z,8.7
2018-01-28T08:41:36.192Z,8.7
2018-01-28T08:42:37.822Z,8.7
2018-01-28T08:43:39.433Z,8.7
2018-01-28T08:44:41.043Z,8.7
2018-01-28T08:45:42.654Z,8.8
2018-01-28T08:46:44.472Z,8.8
2018-01-28T08:47:46.051Z,8.9
2018-01-28T08:48:47.657Z,8.8
2018-01-28T08:49:49.274Z,8.7
2018-01-28T08:50:50.883Z,8.9
2018-01-28T08:51:52.502Z,8.8
2018-01-28T08:52:54.110Z,8.8
2018-01-28T08:53:55.726Z,8.9
2018-01-28T08:54:57.340Z,8.8
2018-01-28T08:55:58.954Z,8.9
2018-01-28T08:57:00.567Z,8.7
2018-01-28T08:58:02.195Z,8.8
2018-01-28T08:59:03.805Z,8.8
2018-01-28T09:00:05.422Z,8.8
2018-01-28T09:01:07.036Z,8.9
2018-01-28T09:02:08.649Z,8.8
2018-01-28T09:03:10.263Z,8.8
2018-01-28T09:04:11.869Z,8.8
2018-01-28T09:05:13.485Z,8.8
2018-01-28T09:06:15.093Z,8.9
2018-01-28T09:07:16.711Z,8.9
2018-01-28T09:08:18.321Z,8.9
2018-01-28T09:09:19.935Z,8.9
2018-01-28T09:10:21.719Z,8.9
2018-01-28T09:11:23.336Z,8.9
2018-01-28T09:12:24.946Z,9.0
2018-01-28T09:13:26.563Z,8.9
2018-01-28T09:14:28.173Z,8.9
2018-01-28T09:15:29.792Z,9.0
2018-01-28T09:16:31.404Z,9.1
2018-01-28T09:17:33.015Z,9.0
2018-01-28T09:18:34.633Z,9.0
2018-01-28T09:19:36.247Z,9.0
2018-01-28T09:20:37.858Z,9.0
2018-01-28T09:21:39.474Z,9.1
2018-01-28T09:22:41.091Z,9.0
2018-01-28T09:23:42.704Z,9.1
2018-01-28T09:24:44.312Z,9.1
2018-01-28T09:25:45.921Z,9.1
2018-01-28T09:26:47.539Z,9.0
2018-01-28T09:27:49.152Z,9.1
2018-01-28T09:28:50.772Z,9.1
2018-01-28T09:29:52.382Z,9.0
2018-01-28T09:30:54.073Z,9.1
2018-01-28T09:31:55.694Z,9.1
2018-01-28T09:32:57.300Z,9.2
2018-01-28T09:33:58.920Z,9.1
2018-01-28T09:35:00.534Z,9.0
2018-01-28T09:36:02.157Z,9.1
2018-01-28T09:37:03.774Z,9.1
2018-01-28T09:38:05.379Z,9.1
2018-01-28T09:39:06.992Z,9.2
2018-01-28T09:40:08.600Z,9.2
2018-01-28T09:41:10.218Z,9.3
2018-01-28T09:42:11.831Z,9.2
2018-01-28T09:43:13.447Z,9.2
2018-01-28T09:44:15.058Z,9.2
2018-01-28T09:45:16.667Z,9.2
2018-01-28T09:46:18.284Z,9.3
2018-01-28T09:47:19.893Z,9.2
2018-01-28T09:48:21.511Z,9.3
2018-01-28T09:49:23.124Z,9.3
2018-01-28T09:50:24.734Z,9.3
2018-01-28T09:51:26.349Z,9.3
2018-01-28T09:52:27.964Z,9.3
2018-01-28T09:53:29.590Z,9.3
2018-01-28T09:54:31.206Z,9.3
2018-01-28T09:55:32.818Z,9.3
2018-01-28T09:56:34.435Z,9.3
2018-01-28T09:57:36.044Z,9.3
2018-01-28T09:58:37.666Z,9.3
2018-01-28T09:59:39.273Z,9.4
2018-01-28T10:00:40.935Z,9.4
2018-01-28T10:01:43.089Z,9.4
2018-01-28T10:02:44.701Z,9.4
2018-01-28T10:03:46.317Z,9.5
2018-01-28T10:04:47.929Z,9.4
2018-01-28T10:05:49.550Z,9.4
2018-01-28T10:06:51.163Z,9.5
2018-01-28T10:07:52.777Z,9.4
2018-01-28T10:08:54.392Z,9.4
2018-01-28T10:09:56.004Z,9.5
2018-01-28T10:10:57.674Z,9.5
2018-01-28T10:11:59.297Z,9.5
2018-01-28T10:13:00.985Z,9.5
2018-01-28T10:14:02.597Z,9.5
2018-01-28T10:15:04.208Z,9.5
2018-01-28T10:16:05.824Z,9.5
2018-01-28T10:17:07.441Z,9.5
2018-01-28T10:18:09.052Z,9.5
2018-01-28T10:19:10.674Z,9.5
2018-01-28T10:20:12.285Z,9.6
2018-01-28T10:21:13.893Z,9.5
2018-01-28T10:22:15.509Z,9.5
2018-01-28T10:23:17.117Z,9.5
2018-01-28T10:24:18.730Z,9.4
2018-01-28T10:25:20.344Z,9.5
2018-01-28T10:26:21.962Z,9.5
2018-01-28T10:27:23.613Z,9.5
2018-01-28T10:28:25.190Z,9.4
2018-01-28T10:29:26.804Z,9.5
2018-01-28T10:30:28.419Z,9.5
2018-01-28T10:31:30.036Z,9.5
2018-01-28T10:32:31.649Z,9.4
2018-01-28T10:33:33.262Z,9.5
2018-01-28T10:34:34.877Z,9.4
2018-01-28T10:35:36.569Z,9.5
2018-01-28T10:36:38.177Z,9.5
2018-01-28T10:37:39.790Z,9.5
2018-01-28T10:38:41.403Z,9.5
2018-01-28T10:39:43.024Z,9.5
2018-01-28T10:40:44.641Z,9.6
2018-01-28T10:41:46.254Z,9.6
2018-01-28T10:42:47.873Z,9.7
2018-01-28T10:43:49.486Z,9.7
2018-01-28T10:44:51.095Z,9.7
2018-01-28T10:45:52.708Z,9.8
2018-01-28T10:46:54.327Z,9.7
2018-01-28T10:47:55.944Z,9.7
2018-01-28T10:48:57.555Z,9.7
2018-01-28T10:49:59.165Z,9.7
2018-01-28T10:51:00.783Z,9.8
2018-01-28T10:52:02.394Z,9.9
2018-01-28T10:53:04.023Z,9.9
2018-01-28T10:54:05.638Z,9.9
2018-01-28T10:55:07.258Z,10.0
2018-01-28T10:56:08.871Z,9.9
2018-01-28T10:57:10.490Z,10.0
2018-01-28T10:58:12.156Z,10.1
2018-01-28T10:59:13.734Z,10.1
2018-01-28T11:00:15.345Z,10.0
2018-01-28T11:01:16.965Z,10.1
2018-01-28T11:02:18.579Z,10.0
2018-01-28T11:03:20.201Z,10.1
2018-01-28T11:04:21.810Z,10.3
2018-01-28T11:05:23.430Z,10.3
2018-01-28T11:06:25.047Z,10.2
2018-01-28T11:07:26.659Z,10.3
2018-01-28T11:08:28.279Z,10.4
2018-01-28T11:09:29.894Z,10.4
2018-01-28T11:10:31.535Z,10.5
2018-01-28T11:11:33.123Z,10.5
2018-01-28T11:12:34.742Z,10.6
2018-01-28T11:13:36.354Z,10.5
2018-01-28T11:14:37.971Z,10.6
2018-01-28T11:15:39.667Z,10.6
2018-01-28T11:16:41.293Z,10.7
2018-01-28T11:17:42.905Z,10.7
2018-01-28T11:18:44.522Z,10.8
2018-01-28T11:19:46.134Z,10.9
2018-01-28T11:20:47.758Z,10.9
2018-01-28T11:21:49.371Z,10.9
2018-01-28T11:22:51.000Z,10.8
2018-01-28T11:23:52.618Z,10.7
2018-01-28T11:24:54.243Z,11.0
2018-01-28T11:25:55.850Z,11.0
2018-01-28T11:26:57.465Z,10.8
2018-01-28T11:27:59.080Z,10.8
2018-01-28T11:29:00.699Z,10.8
2018-01-28T11:30:02.311Z,10.8
2018-01-28T11:31:03.926Z,11.0
2018-01-28T11:32:05.548Z,11.1
2018-01-28T11:33:07.163Z,11.2
2018-01-28T11:34:08.775Z,11.2
2018-01-28T11:35:10.394Z,11.3
2018-01-28T11:36:12.007Z,11.4
2018-01-28T11:37:13.626Z,11.2
2018-01-28T11:38:15.241Z,11.3
2018-01-28T11:39:16.869Z,11.4
2018-01-28T11:40:18.473Z,11.4
2018-01-28T11:41:20.088Z,11.4
2018-01-28T11:42:21.707Z,11.3
2018-01-28T11:43:23.388Z,11.3
2018-01-28T11:44:25.017Z,11.3
2018-01-28T11:45:26.635Z,11.4
2018-01-28T11:46:28.256Z,11.4
2018-01-28T11:47:29.869Z,11.5
2018-01-28T11:48:31.485Z,11.6
2018-01-28T11:49:33.099Z,11.6
2018-01-28T11:50:34.757Z,11.7
2018-01-28T11:51:36.333Z,11.6
2018-01-28T11:52:37.957Z,11.7
2018-01-28T11:53:39.644Z,11.5
2018-01-28T11:54:41.342Z,11.4
2018-01-28T11:55:42.967Z,11.5
2018-01-28T11:56:44.587Z,11.5
2018-01-28T11:57:46.200Z,11.6
2018-01-28T11:58:47.818Z,11.6
2018-01-28T11:59:49.432Z,11.6
2018-01-28T12:00:51.051Z,11.5
2018-01-28T12:01:52.665Z,11.5
2018-01-28T12:02:54.285Z,11.6
2018-01-28T12:03:55.901Z,11.5
2018-01-28T12:04:57.517Z,11.5
2018-01-28T12:05:59.142Z,11.6
2018-01-28T12:07:00.756Z,11.6
2018-01-28T12:08:02.377Z,11.4
2018-01-28T12:09:04.027Z,11.3
2018-01-28T12:10:05.649Z,11.3
2018-01-28T12:11:07.262Z,11.3
2018-01-28T12:12:08.884Z,11.4
2018-01-28T12:13:10.496Z,11.3
2018-01-28T12:14:12.117Z,11.2
2018-01-28T12:15:13.731Z,11.2
2018-01-28T12:16:15.350Z,11.3
2018-01-28T12:17:16.993Z,11.2
2018-01-28T12:18:18.698Z,11.4
2018-01-28T12:19:20.313Z,11.5
2018-01-28T12:20:21.929Z,11.6
2018-01-28T12:21:23.563Z,11.7
2018-01-28T12:22:25.183Z,11.7
2018-01-28T12:23:26.795Z,11.6
2018-01-28T12:24:28.410Z,11.8
2018-01-28T12:25:30.026Z,11.7
2018-01-28T12:26:31.644Z,11.7
2018-01-28T12:27:33.258Z,11.7
2018-01-28T12:28:34.876Z,11.7
2018-01-28T12:29:36.494Z,11.8
2018-01-28T12:30:38.111Z,11.6
2018-01-28T12:31:39.726Z,11.6
2018-01-28T12:32:41.340Z,11.7
2018-01-28T12:33:42.959Z,11.7
2018-01-28T12:34:44.577Z,11.7
2018-01-28T12:35:46.190Z,11.7
2018-01-28T12:36:47.862Z,11.7
2018-01-28T12:37:49.422Z,11.6
2018-01-28T12:38:51.038Z,11.6
2018-01-28T12:39:52.658Z,11.5
2018-01-28T12:40:54.276Z,11.5
2018-01-28T12:41:55.889Z,11.5
2018-01-28T12:42:57.510Z,11.5
2018-01-28T12:43:59.207Z,11.5
2018-01-28T12:45:00.943Z,11.5
2018-01-28T12:46:02.551Z,11.5
2018-01-28T12:47:04.167Z,11.5
2018-01-28T12:48:05.786Z,11.6
2018-01-28T12:49:07.403Z,11.6
2018-01-28T12:50:09.020Z,11.6
2018-01-28T12:51:10.636Z,11.6
2018-01-28T12:52:12.256Z,11.6
2018-01-28T12:53:13.864Z,11.5
2018-01-28T12:54:15.484Z,11.7
2018-01-28T12:55:17.100Z,11.7
2018-01-28T12:56:18.716Z,11.8
2018-01-28T12:57:20.337Z,11.8
2018-01-28T12:58:21.958Z,11.6
2018-01-28T12:59:23.564Z,11.9
2018-01-28T13:00:25.183Z,11.9
2018-01-28T13:01:26.801Z,11.8
2018-01-28T13:02:28.414Z,11.8
2018-01-28T13:03:30.033Z,11.7
2018-01-28T13:04:31.653Z,11.7
2018-01-28T13:05:33.272Z,11.9
2018-01-28T13:06:34.886Z,12.0
2018-01-28T13:07:36.498Z,11.9
2018-01-28T13:08:38.116Z,11.9
2018-01-28T13:09:39.732Z,11.7
2018-01-28T13:10:41.346Z,11.9
2018-01-28T13:11:42.962Z,11.9
2018-01-28T13:12:44.585Z,11.8
2018-01-28T13:13:46.201Z,11.8
2018-01-28T13:14:47.814Z,11.8
2018-01-28T13:15:49.432Z,11.7
2018-01-28T13:16:51.054Z,11.8
2018-01-28T13:17:52.666Z,11.8
2018-01-28T13:18:54.284Z,11.8
2018-01-28T13:19:55.906Z,11.9
2018-01-28T13:20:57.516Z,11.9
2018-01-28T13:21:59.132Z,12.0
2018-01-28T13:23:00.760Z,12.1
2018-01-28T13:24:02.373Z,12.2
2018-01-28T13:25:03.988Z,12.2
2018-01-28T13:26:05.608Z,12.2
2018-01-28T13:27:07.225Z,12.0
2018-01-28T13:28:08.838Z,12.0
2018-01-28T13:29:10.455Z,11.9
2018-01-28T13:30:12.069Z,12.0
2018-01-28T13:31:13.682Z,12.2
2018-01-28T13:32:15.297Z,12.1
2018-01-28T13:33:16.919Z,12.1
2018-01-28T13:34:18.533Z,12.0
2018-01-28T13:35:20.150Z,11.9
2018-01-28T13:36:21.758Z,11.7
2018-01-28T13:37:23.384Z,11.7
2018-01-28T13:38:25.027Z,11.6
2018-01-28T13:39:26.646Z,11.7
2018-01-28T13:40:28.261Z,11.7
2018-01-28T13:41:29.904Z,11.8
2018-01-28T13:42:31.538Z,11.8
2018-01-28T13:43:33.163Z,11.8
2018-01-28T13:44:34.782Z,11.9
2018-01-28T13:45:36.399Z,11.8
2018-01-28T13:46:38.018Z,11.8
2018-01-28T13:47:39.655Z,11.8
2018-01-28T13:48:41.273Z,11.8
2018-01-28T13:49:42.886Z,11.7
2018-01-28T13:50:44.546Z,11.5
2018-01-28T13:51:46.115Z,11.5
2018-01-28T13:52:47.736Z,11.6
2018-01-28T13:53:49.349Z,11.7
2018-01-28T13:54:50.972Z,11.8
2018-01-28T13:55:52.587Z,11.8
2018-01-28T13:56:54.206Z,11.8
2018-01-28T13:57:55.821Z,11.8
2018-01-28T13:58:57.441Z,11.9
2018-01-28T13:59:59.059Z,11.7
2018-01-28T14:01:00.673Z,11.7
2018-01-28T14:02:02.288Z,11.7